Time;durP1;ratioP1;P1;durP2;ratioP2;P2;SDS_P1;SDS_P2;PMS_P1;PMS_P2;Temp;Humidity;BMP_temperature;BMP_pressure;BME280_temperature;BME280_humidity;BME280_pressure;Samples;Min_cycle;Max_cycle;Signal;HPM_P1;HPM_P2
2022/04/08 00:00:03;;;;;;;4.60;1.38;;;2.40;99.90;;;;;;5072302;28;20044;-68
2022/04/08 00:02:31;;;;;;;;;;;2.30;99.90;;;;;;5067553;28;20071;-70
2022/04/08 00:04:59;;;;;;;5.95;1.25;;;2.30;99.90;;;;;;5052017;28;19920;-69
2022/04/08 00:07:26;;;;;;;11.00;2.42;;;2.20;99.90;;;;;;5052312;28;20048;-70
2022/04/08 00:09:54;;;;;;;6.53;1.40;;;2.20;99.90;;;;;;5067639;28;20056;-65
2022/04/08 00:12:22;;;;;;;11.63;1.45;;;2.10;99.90;;;;;;5051726;28;20503;-69
2022/04/08 00:14:50;;;;;;;9.23;1.58;;;2.00;99.90;;;;;;5051942;28;20049;-69
2022/04/08 00:17:17;;;;;;;4.70;1.55;;;2.00;99.90;;;;;;5051528;28;20045;-65
2022/04/08 00:19:45;;;;;;;3.97;1.17;;;1.90;99.90;;;;;;5052951;28;20060;-66
2022/04/08 00:22:13;;;;;;;13.00;1.98;;;1.90;99.90;;;;;;5071920;28;20045;-66
2022/04/08 00:24:40;;;;;;;5.85;1.40;;;1.90;99.90;;;;;;5071758;28;20040;-66
2022/04/08 00:27:08;;;;;;;8.30;2.45;;;1.90;99.90;;;;;;5070479;28;20052;-65
2022/04/08 00:29:36;;;;;;;5.60;0.90;;;1.90;99.90;;;;;;5071028;28;20040;-65
2022/04/08 00:32:03;;;;;;;4.53;1.33;;;1.90;99.90;;;;;;5068921;28;20052;-66
2022/04/08 00:34:31;;;;;;;8.57;1.60;;;1.90;99.90;;;;;;5063152;28;20396;-65
2022/04/08 00:36:59;;;;;;;3.58;0.95;;;1.90;99.90;;;;;;5032494;28;20063;-66
2022/04/08 00:39:27;;;;;;;13.68;2.15;;;1.90;99.90;;;;;;5067347;28;20056;-67
2022/04/08 00:41:54;;;;;;;6.18;1.42;;;1.90;99.90;;;;;;5071225;28;20403;-66
2022/04/08 00:44:22;;;;;;;10.80;2.00;;;1.90;99.90;;;;;;5070149;28;20047;-67
2022/04/08 00:46:49;;;;;;;5.20;0.95;;;1.90;99.90;;;;;;5071545;28;20047;-67
2022/04/08 00:49:17;;;;;;;10.32;1.58;;;1.90;99.90;;;;;;5055833;28;20049;-65
2022/04/08 00:51:45;;;;;;;6.78;1.30;;;1.80;99.90;;;;;;5050947;28;20052;-67
2022/04/08 00:54:14;;;;;;;10.33;1.40;;;1.90;99.90;;;;;;5050649;28;20069;-65
2022/04/08 00:56:42;;;;;;;8.35;1.08;;;1.90;99.90;;;;;;5049523;28;20053;-65
2022/04/08 00:59:10;;;;;;;11.68;1.77;;;1.90;99.90;;;;;;5063375;28;20055;-67
2022/04/08 01:01:38;;;;;;;7.85;1.10;;;2.00;99.90;;;;;;5070245;28;20052;-67
2022/04/08 01:04:07;;;;;;;6.10;1.27;;;2.00;99.90;;;;;;5061994;28;20057;-67
2022/04/08 01:06:35;;;;;;;5.13;1.70;;;1.90;99.90;;;;;;5048081;28;20049;-65
2022/04/08 01:09:03;;;;;;;8.32;1.42;;;1.90;99.90;;;;;;5062446;28;20052;-65
2022/04/08 01:11:32;;;;;;;9.13;1.58;;;1.90;99.90;;;;;;5070724;28;20052;-65
2022/04/08 01:14:09;;;;;;;7.68;1.40;;;1.80;99.90;;;;;;5070827;28;20055;-66
2022/04/08 01:16:37;;;;;;;9.50;1.88;;;1.70;99.90;;;;;;5069524;28;20051;-65
2022/04/08 01:19:05;;;;;;;12.07;3.30;;;1.70;99.90;;;;;;5059080;28;20373;-69
2022/04/08 01:21:34;;;;;;;10.65;1.70;;;1.60;99.90;;;;;;5050969;28;20107;-69
2022/04/08 01:24:03;;;;;;;6.78;1.50;;;1.60;99.90;;;;;;5050334;28;20401;-68
2022/04/08 01:26:30;;;;;;;6.72;1.52;;;1.50;99.90;;;;;;5050763;28;20406;-68
2022/04/08 01:28:58;;;;;;;6.80;1.73;;;1.50;99.90;;;;;;5066477;28;20044;-66
2022/04/08 01:31:29;;;;;;;5.35;1.17;;;1.50;99.90;;;;;;5056067;28;20048;-70
2022/04/08 01:33:57;;;;;;;7.20;1.67;;;1.40;99.90;;;;;;5056083;28;20041;-66
2022/04/08 01:36:25;;;;;;;10.50;1.30;;;1.30;99.90;;;;;;5068808;28;20060;-70
2022/04/08 01:38:53;;;;;;;14.77;1.85;;;1.30;99.90;;;;;;5068256;28;20789;-69
2022/04/08 01:41:21;;;;;;;9.60;1.85;;;1.20;99.90;;;;;;5068731;28;20644;-67
2022/04/08 01:43:49;;;;;;;8.63;1.33;;;1.10;99.90;;;;;;5067523;28;20044;-70
2022/04/08 01:46:16;;;;;;;9.45;1.35;;;1.10;99.90;;;;;;5068448;28;20484;-70
2022/04/08 01:48:44;;;;;;;16.25;2.92;;;1.10;99.90;;;;;;5067084;28;20056;-70
2022/04/08 01:51:12;;;;;;;5.68;1.33;;;1.00;99.90;;;;;;5067137;28;20052;-71
2022/04/08 01:53:39;;;;;;;8.40;1.90;;;1.00;99.90;;;;;;5067207;28;20044;-72
2022/04/08 01:56:07;;;;;;;10.98;1.63;;;1.00;99.90;;;;;;5068711;28;20048;-70
2022/04/08 01:58:35;;;;;;;3.00;1.05;;;1.00;99.90;;;;;;5065878;28;20045;-68
2022/04/08 02:01:02;;;;;;;8.10;1.40;;;0.90;99.90;;;;;;5067249;28;20049;-68
2022/04/08 02:03:33;;;;;;;3.47;1.40;;;0.90;99.90;;;;;;5064075;28;20056;-70
2022/04/08 02:06:00;;;;;;;5.32;1.25;;;0.90;99.90;;;;;;5047547;28;20476;-69
2022/04/08 02:08:28;;;;;;;10.63;1.25;;;1.00;99.90;;;;;;5056130;28;20049;-69
2022/04/08 02:10:56;;;;;;;8.75;1.90;;;1.00;99.90;;;;;;5067118;28;20045;-70
2022/04/08 02:13:23;;;;;;;17.13;1.65;;;1.10;99.90;;;;;;5068041;28;20052;-69
2022/04/08 02:15:51;;;;;;;7.60;1.73;;;1.10;99.90;;;;;;5063020;28;20045;-70
2022/04/08 02:18:18;;;;;;;6.82;1.67;;;1.20;99.90;;;;;;5052705;28;20044;-70
2022/04/08 02:20:46;;;;;;;10.02;2.15;;;1.30;99.90;;;;;;5048192;28;20408;-69
2022/04/08 02:23:14;;;;;;;5.70;1.63;;;1.40;99.90;;;;;;5048231;28;20056;-70
2022/04/08 02:25:42;;;;;;;10.85;1.70;;;1.50;99.90;;;;;;5048286;28;20056;-70
2022/04/08 02:28:10;;;;;;;2.28;1.33;;;1.50;99.90;;;;;;5053331;28;20044;-68
2022/04/08 02:30:37;;;;;;;9.93;1.35;;;1.60;99.90;;;;;;5066867;28;20550;-70
2022/04/08 02:33:05;;;;;;;13.82;1.77;;;1.60;99.90;;;;;;5066937;28;20388;-68
2022/04/08 02:35:33;;;;;;;14.82;1.35;;;1.60;99.90;;;;;;5062679;28;20048;-70
2022/04/08 02:38:00;;;;;;;12.35;1.60;;;1.70;99.90;;;;;;5051725;28;20091;-69
2022/04/08 02:40:28;;;;;;;10.30;1.60;;;1.80;99.90;;;;;;5066997;28;20052;-70
2022/04/08 02:42:55;;;;;;;10.85;1.98;;;1.80;99.90;;;;;;5068566;28;20064;-71
2022/04/08 02:45:23;;;;;;;10.35;1.38;;;1.90;99.90;;;;;;5069509;28;20056;-67
2022/04/08 02:47:51;;;;;;;7.38;1.50;;;1.90;99.90;;;;;;5051378;28;20063;-65
2022/04/08 02:50:18;;;;;;;7.35;1.52;;;2.00;99.90;;;;;;5054445;28;20044;-69
2022/04/08 02:52:46;;;;;;;7.22;1.67;;;2.10;99.90;;;;;;5049062;28;20045;-65
2022/04/08 02:55:14;;;;;;;8.73;1.23;;;2.10;99.90;;;;;;5049312;28;20144;-68
2022/04/08 02:57:46;;;;;;;8.02;2.35;;;2.20;99.90;;;;;;5048891;28;20045;-66
2022/04/08 03:00:19;;;;;;;14.38;1.75;;;2.20;99.90;;;;;;5066369;28;20056;-65
2022/04/08 03:02:48;;;;;;;13.77;1.63;;;2.20;99.90;;;;;;5066572;28;20059;-64
2022/04/08 03:05:16;;;;;;;10.50;1.60;;;2.20;99.90;;;;;;5054127;28;20052;-65
2022/04/08 03:07:44;;;;;;;4.43;1.08;;;2.20;99.90;;;;;;5049121;28;20049;-65
2022/04/08 03:10:12;;;;;;;8.35;1.73;;;2.20;99.90;;;;;;5067743;28;20048;-65
2022/04/08 03:12:40;;;;;;;5.60;1.40;;;2.10;99.90;;;;;;5068083;28;20488;-65
2022/04/08 03:15:09;;;;;;;11.27;1.95;;;2.00;99.90;;;;;;5067673;28;20462;-65
2022/04/08 03:17:37;;;;;;;6.32;2.33;;;2.00;99.90;;;;;;5071355;28;20049;-66
2022/04/08 03:20:06;;;;;;;11.32;1.48;;;1.90;99.90;;;;;;5060219;28;20048;-66
2022/04/08 03:22:33;;;;;;;9.38;1.15;;;1.90;99.90;;;;;;5051403;28;20611;-66
2022/04/08 03:25:01;;;;;;;4.50;1.05;;;1.80;99.90;;;;;;5051332;28;20048;-67
2022/04/08 03:27:29;;;;;;;9.25;1.63;;;1.70;99.90;;;;;;5051547;28;20061;-66
2022/04/08 03:29:57;;;;;;;6.55;1.20;;;1.60;99.90;;;;;;5070628;28;20059;-67
2022/04/08 03:32:24;;;;;;;10.98;1.70;;;1.50;99.90;;;;;;5069619;28;20048;-67
2022/04/08 03:34:57;;;;;;;8.75;1.55;;;1.40;99.90;;;;;;5062626;28;20052;-66
2022/04/08 03:37:26;;;;;;;8.77;2.17;;;1.30;99.90;;;;;;5051040;28;20049;-66
2022/04/08 03:39:54;;;;;;;5.50;1.58;;;1.30;99.90;;;;;;5052398;28;20079;-67
2022/04/08 03:42:23;;;;;;;6.57;0.93;;;1.20;99.90;;;;;;5070690;28;20052;-66
2022/04/08 03:44:51;;;;;;;7.13;1.70;;;1.20;99.90;;;;;;5069746;28;20044;-66
2022/04/08 03:47:20;;;;;;;11.25;1.75;;;1.10;99.90;;;;;;5070964;28;20051;-65
2022/04/08 03:49:48;;;;;;;5.30;1.70;;;1.10;99.90;;;;;;5063879;28;20505;-67
2022/04/08 03:52:16;;;;;;;11.98;1.95;;;1.10;99.90;;;;;;5050748;28;20065;-69
2022/04/08 03:54:43;;;;;;;12.60;2.00;;;1.00;99.90;;;;;;5049465;28;20045;-68
2022/04/08 03:57:11;;;;;;;7.60;2.45;;;1.00;99.90;;;;;;5049082;28;20052;-66
2022/04/08 03:59:44;;;;;;;;;;;0.90;99.90;;;;;;5066757;28;20081;-66
2022/04/08 04:02:12;;;;;;;6.72;1.63;;;0.90;99.90;;;;;;5070634;28;19928;-67
2022/04/08 04:04:40;;;;;;;7.32;2.40;;;0.90;99.90;;;;;;5066393;28;20449;-67
2022/04/08 04:07:08;;;;;;;12.95;2.35;;;0.80;99.90;;;;;;5048725;28;20056;-66
2022/04/08 04:09:35;;;;;;;6.80;1.40;;;0.80;99.90;;;;;;5049064;28;20063;-69
2022/04/08 04:12:03;;;;;;;3.58;1.70;;;0.70;99.90;;;;;;5070543;28;20049;-70
2022/04/08 04:14:31;;;;;;;6.78;1.60;;;0.70;99.90;;;;;;5071962;28;20432;-67
2022/04/08 04:16:59;;;;;;;9.02;2.10;;;0.70;99.90;;;;;;5072644;28;20045;-68
2022/04/08 04:19:26;;;;;;;9.35;1.92;;;0.60;99.90;;;;;;5068717;28;20052;-65
2022/04/08 04:21:54;;;;;;;10.70;1.77;;;0.60;99.90;;;;;;5070290;28;20047;-68
2022/04/08 04:24:22;;;;;;;13.52;2.30;;;0.60;99.90;;;;;;5068786;28;20061;-68
2022/04/08 04:26:49;;;;;;;5.95;1.83;;;0.60;99.90;;;;;;5069423;28;20392;-68
2022/04/08 04:29:18;;;;;;;10.75;2.47;;;0.50;99.90;;;;;;5069400;28;20484;-68
2022/04/08 04:31:46;;;;;;;8.88;1.80;;;0.50;99.90;;;;;;5069959;28;20048;-68
2022/04/08 04:34:15;;;;;;;6.63;2.63;;;0.40;99.90;;;;;;5069750;28;20055;-67
2022/04/08 04:36:42;;;;;;;11.27;2.45;;;0.40;99.90;;;;;;5050437;28;20377;-69
2022/04/08 04:39:10;;;;;;;8.23;2.00;;;0.40;99.90;;;;;;5062713;28;20052;-65
2022/04/08 04:41:38;;;;;;;14.70;2.60;;;0.40;99.90;;;;;;5068871;28;20111;-67
2022/04/08 04:44:05;;;;;;;11.15;2.67;;;0.40;99.90;;;;;;5069654;28;20476;-65
2022/04/08 04:46:33;;;;;;;9.07;2.40;;;0.30;99.90;;;;;;5068369;28;20048;-66
2022/04/08 04:49:01;;;;;;;22.77;3.22;;;0.30;99.90;;;;;;5068016;28;20052;-65
2022/04/08 04:51:30;;;;;;;11.32;1.85;;;0.30;99.90;;;;;;5053292;28;20052;-66
2022/04/08 04:53:58;;;;;;;11.35;2.20;;;0.30;99.90;;;;;;5049669;28;20060;-66
2022/04/08 04:56:26;;;;;;;12.30;2.58;;;0.30;99.90;;;;;;5034624;28;20053;-67
2022/04/08 04:58:54;;;;;;;12.50;2.50;;;0.30;99.90;;;;;;5063238;28;20041;-66
2022/04/08 05:01:22;;;;;;;18.23;2.75;;;0.20;99.90;;;;;;5069498;28;20049;-69
2022/04/08 05:03:49;;;;;;;9.43;2.60;;;0.20;99.90;;;;;;5046409;28;20057;-66
2022/04/08 05:06:17;;;;;;;10.82;3.30;;;0.20;99.90;;;;;;5048162;28;20045;-67
2022/04/08 05:08:52;;;;;;;13.60;3.33;;;0.20;99.90;;;;;;5058866;28;20546;-68
2022/04/08 05:11:19;;;;;;;6.32;2.58;;;0.20;99.90;;;;;;5070842;28;20495;-68
2022/04/08 05:13:47;;;;;;;10.85;3.08;;;0.20;99.90;;;;;;5070663;28;20051;-67
2022/04/08 05:16:15;;;;;;;13.73;2.90;;;0.10;99.90;;;;;;5052794;28;20506;-69
2022/04/08 05:18:42;;;;;;;8.88;2.53;;;0.10;99.90;;;;;;5070761;28;20052;-70
2022/04/08 05:21:10;;;;;;;9.70;2.88;;;0.00;99.90;;;;;;5068257;28;20045;-67
2022/04/08 05:23:37;;;;;;;12.15;3.42;;;0.00;99.90;;;;;;5065913;28;20045;-69
2022/04/08 05:26:05;;;;;;;20.88;4.15;;;0.00;99.90;;;;;;5068221;28;20404;-69
2022/04/08 05:28:33;;;;;;;14.00;3.00;;;0.00;99.90;;;;;;5070519;28;20500;-69
2022/04/08 05:31:00;;;;;;;18.27;4.15;;;0.00;99.90;;;;;;5035967;28;20056;-66
2022/04/08 05:33:29;;;;;;;16.03;4.10;;;0.00;99.90;;;;;;5070541;28;20041;-69
2022/04/08 05:35:56;;;;;;;18.10;3.38;;;0.00;99.90;;;;;;5062492;28;20049;-73
2022/04/08 05:38:24;;;;;;;19.35;3.65;;;0.00;99.90;;;;;;5059162;28;20052;-69
2022/04/08 05:40:52;;;;;;;18.50;3.03;;;0.00;99.90;;;;;;5070373;28;20072;-69
2022/04/08 05:43:19;;;;;;;9.80;3.25;;;-0.10;99.90;;;;;;5065959;28;20476;-68
2022/04/08 05:45:47;;;;;;;10.50;3.42;;;-0.10;99.90;;;;;;5067069;28;20052;-70
2022/04/08 05:48:15;;;;;;;13.57;3.38;;;-0.10;99.90;;;;;;5066696;28;20048;-70
2022/04/08 05:50:42;;;;;;;13.27;3.60;;;-0.10;99.90;;;;;;5065649;28;20041;-70
2022/04/08 05:53:10;;;;;;;13.57;3.97;;;-0.10;99.90;;;;;;5066934;28;20040;-70
2022/04/08 05:55:59;;;;;;;18.20;5.22;;;0.20;99.90;;;;;;5067040;28;20060;-70
2022/04/08 05:58:26;;;;;;;15.70;4.97;;;-0.10;99.90;;;;;;5065445;28;20049;-69
2022/04/08 06:00:54;;;;;;;12.38;5.15;;;-0.10;99.90;;;;;;5065907;28;20044;-69
2022/04/08 06:03:22;;;;;;;16.55;4.32;;;-0.10;99.90;;;;;;5067512;28;20048;-70
2022/04/08 06:05:49;;;;;;;14.75;4.40;;;-0.10;99.90;;;;;;5066017;28;20403;-70
2022/04/08 06:08:17;;;;;;;17.52;4.80;;;-0.10;99.90;;;;;;5066464;28;20415;-72
2022/04/08 06:10:45;;;;;;;11.82;4.72;;;-0.10;99.90;;;;;;5068784;28;20532;-66
2022/04/08 06:13:13;;;;;;;13.32;5.00;;;0.00;99.90;;;;;;5069354;28;20044;-67
2022/04/08 06:15:40;;;;;;;15.30;5.25;;;0.00;99.90;;;;;;5067866;28;20513;-68
2022/04/08 06:18:10;;;;;;;15.98;5.72;;;0.00;99.90;;;;;;5047337;28;20047;-68
2022/04/08 06:20:37;;;;;;;13.68;4.28;;;0.00;99.90;;;;;;5050095;28;20411;-66
2022/04/08 06:23:05;;;;;;;18.75;4.82;;;0.00;99.90;;;;;;5066649;28;20037;-68
2022/04/08 06:25:33;;;;;;;11.43;4.85;;;0.00;99.90;;;;;;5066562;28;20048;-66
2022/04/08 06:28:03;;;;;;;9.50;4.40;;;0.00;99.90;;;;;;5066420;28;20507;-67
2022/04/08 06:30:33;;;;;;;12.25;4.85;;;0.10;99.90;;;;;;5065327;28;20055;-66
2022/04/08 06:33:02;;;;;;;21.08;6.15;;;0.10;99.90;;;;;;5065459;28;20123;-66
2022/04/08 06:35:30;;;;;;;10.52;4.00;;;0.10;99.90;;;;;;5064641;28;20583;-66
2022/04/08 06:38:05;;;;;;;24.95;5.10;;;0.20;99.90;;;;;;5048751;28;20053;-69
2022/04/08 06:40:35;;;;;;;22.23;6.13;;;0.20;99.90;;;;;;5065360;28;20484;-67
2022/04/08 06:43:04;;;;;;;24.70;6.63;;;0.30;99.90;;;;;;5065587;28;20041;-64
2022/04/08 06:45:33;;;;;;;19.88;5.80;;;0.30;99.90;;;;;;5066452;28;20055;-66
2022/04/08 06:48:01;;;;;;;13.50;5.57;;;0.50;99.90;;;;;;5066232;28;20056;-66
2022/04/08 06:50:29;;;;;;;12.20;6.10;;;0.50;99.90;;;;;;5065904;28;20047;-66
2022/04/08 06:52:59;;;;;;;29.27;7.03;;;0.50;99.90;;;;;;5065530;28;20047;-67
2022/04/08 06:55:31;;;;;;;18.63;5.40;;;0.60;99.90;;;;;;5050655;28;20053;-69
2022/04/08 06:58:02;;;;;;;30.65;7.15;;;0.70;99.90;;;;;;5051920;28;20048;-65
2022/04/08 07:00:32;;;;;;;26.95;6.78;;;0.70;99.90;;;;;;5071447;28;20059;-66
2022/04/08 07:03:00;;;;;;;15.45;6.80;;;0.80;99.90;;;;;;5073207;28;20048;-66
2022/04/08 07:05:29;;;;;;;23.55;7.30;;;0.90;99.90;;;;;;5071943;28;20068;-67
2022/04/08 07:07:57;;;;;;;15.25;7.15;;;1.00;99.90;;;;;;5053566;28;20049;-66
2022/04/08 07:10:25;;;;;;;16.90;7.60;;;1.00;99.90;;;;;;5068798;28;20055;-68
2022/04/08 07:12:53;;;;;;;22.02;6.38;;;1.10;99.90;;;;;;5068804;28;20041;-67
2022/04/08 07:15:21;;;;;;;16.17;6.30;;;1.20;99.90;;;;;;5069961;28;20407;-67
2022/04/08 07:17:49;;;;;;;24.02;6.35;;;1.30;99.90;;;;;;5068540;28;20041;-68
2022/04/08 07:20:19;;;;;;;25.08;5.53;;;1.40;99.90;;;;;;5068694;28;20370;-65
2022/04/08 07:22:47;;;;;;;13.68;4.55;;;1.50;99.90;;;;;;5053240;28;20052;-68
2022/04/08 07:25:16;;;;;;;18.25;4.78;;;1.60;99.90;;;;;;5049854;28;20045;-67
2022/04/08 07:27:48;;;;;;;16.80;4.65;;;1.70;99.90;;;;;;5048464;28;20602;-68
2022/04/08 07:30:18;;;;;;;18.90;4.88;;;1.80;99.90;;;;;;5069175;28;20074;-67
2022/04/08 07:32:50;;;;;;;11.25;5.32;;;1.90;99.90;;;;;;5051938;28;20095;-66
2022/04/08 07:35:19;;;;;;;19.45;4.75;;;2.00;99.90;;;;;;5068190;28;20060;-65
2022/04/08 07:37:46;;;;;;;18.55;4.57;;;2.20;99.90;;;;;;5067279;28;20056;-65
2022/04/08 07:40:14;;;;;;;20.70;4.63;;;2.30;99.90;;;;;;5069201;28;20392;-65
2022/04/08 07:42:42;;;;;;;14.48;4.45;;;2.40;99.90;;;;;;5068637;28;20048;-66
2022/04/08 07:45:11;;;;;;;16.63;4.47;;;2.50;99.90;;;;;;5069153;28;20056;-67
2022/04/08 07:47:39;;;;;;;17.52;3.97;;;2.60;99.90;;;;;;5067914;28;20052;-67
2022/04/08 07:50:12;;;;;;;12.65;3.72;;;2.70;99.90;;;;;;5068844;28;20040;-65
2022/04/08 07:52:41;;;;;;;11.65;3.08;;;2.80;99.90;;;;;;5055324;28;20041;-70
2022/04/08 07:55:10;;;;;;;11.95;3.30;;;2.90;99.90;;;;;;5047936;28;20408;-66
2022/04/08 07:57:45;;;;;;;6.55;2.78;;;3.00;99.90;;;;;;5048974;28;20056;-66
2022/04/08 08:00:15;;;;;;;13.15;3.28;;;3.10;99.90;;;;;;5049087;28;20056;-66
2022/04/08 08:02:43;;;;;;;12.65;3.13;;;3.20;99.90;;;;;;5047742;28;20045;-68
2022/04/08 08:05:12;;;;;;;13.07;3.40;;;3.30;99.90;;;;;;5048673;28;20063;-66
2022/04/08 08:07:59;;;;;;;13.63;5.32;;;3.40;99.90;;;;;;5059751;28;20040;-67
2022/04/08 08:10:29;;;;;;;11.40;4.57;;;3.60;99.90;;;;;;5068947;28;20041;-67
2022/04/08 08:12:59;;;;;;;;;;;3.70;99.90;;;;;;5069110;28;20056;-66
2022/04/08 08:15:28;;;;;;;35.35;4.85;;;3.70;99.90;;;;;;5068955;28;20394;-67
2022/04/08 08:17:57;;;;;;;13.68;4.03;;;3.80;99.90;;;;;;5068777;28;20037;-67
2022/04/08 08:20:26;;;;;;;7.65;3.50;;;3.90;99.90;;;;;;5068259;28;20060;-66
2022/04/08 08:22:54;;;;;;;11.40;3.40;;;4.10;99.90;;;;;;5055250;28;20048;-67
2022/04/08 08:25:22;;;;;;;11.98;2.35;;;4.20;99.90;;;;;;5047234;28;20049;-67
2022/04/08 08:27:56;;;;;;;3.55;2.33;;;4.30;99.90;;;;;;5049574;28;20064;-67
2022/04/08 08:30:23;;;;;;;8.65;2.53;;;4.40;99.90;;;;;;5068753;28;20045;-66
2022/04/08 08:32:51;;;;;;;4.95;2.35;;;4.50;99.90;;;;;;5071443;28;20045;-68
2022/04/08 08:35:19;;;;;;;5.32;1.42;;;4.60;99.90;;;;;;5071631;28;20044;-66
2022/04/08 08:37:49;;;;;;;3.42;1.13;;;4.70;99.90;;;;;;5066206;28;20053;-68
2022/04/08 08:40:19;;;;;;;6.35;2.17;;;4.80;99.90;;;;;;5071387;28;20040;-67
2022/04/08 08:42:47;;;;;;;;;;;4.90;99.90;;;;;;5071733;28;20056;-66
2022/04/08 08:45:16;;;;;;;3.35;1.13;;;5.00;99.90;;;;;;5071443;28;19931;-67
2022/04/08 08:47:48;;;;;;;8.98;1.30;;;5.10;99.90;;;;;;5071049;28;20040;-67
2022/04/08 08:50:17;;;;;;;7.88;1.20;;;5.20;99.90;;;;;;5071264;28;20387;-67
2022/04/08 08:52:49;;;;;;;4.45;0.77;;;5.20;99.90;;;;;;5061120;28;20037;-67
2022/04/08 08:55:18;;;;;;;12.18;0.95;;;5.30;99.90;;;;;;5051117;28;20040;-67
2022/04/08 08:57:47;;;;;;;6.40;0.70;;;5.40;99.90;;;;;;5066673;28;20044;-66
2022/04/08 09:00:18;;;;;;;5.45;1.00;;;5.50;99.90;;;;;;5070843;28;20043;-67
2022/04/08 09:02:48;;;;;;;6.63;1.90;;;5.60;99.90;;;;;;5070878;28;20485;-66
2022/04/08 09:05:21;;;;;;;5.35;1.38;;;5.80;99.90;;;;;;5070963;28;20048;-66
2022/04/08 09:07:55;;;;;;;5.75;1.23;;;5.90;99.90;;;;;;5065802;28;20045;-66
2022/04/08 09:10:28;;;;;;;8.38;1.10;;;6.00;99.90;;;;;;5070768;28;20495;-66
2022/04/08 09:12:57;;;;;;;5.63;1.33;;;6.10;99.90;;;;;;5067237;28;20476;-67
2022/04/08 09:15:25;;;;;;;8.50;2.20;;;6.20;99.90;;;;;;5067448;28;20051;-70
2022/04/08 09:17:54;;;;;;;3.85;1.15;;;6.30;99.90;;;;;;5068922;28;20041;-70
2022/04/08 09:20:22;;;;;;;4.47;1.00;;;6.40;99.90;;;;;;5070521;28;20040;-70
2022/04/08 09:22:56;;;;;;;3.13;0.60;;;6.50;99.90;;;;;;5069426;28;20048;-67
2022/04/08 09:25:26;;;;;;;6.93;1.55;;;6.60;99.90;;;;;;5070607;28;20499;-70
2022/04/08 09:27:58;;;;;;;3.92;1.27;;;6.70;99.90;;;;;;5070487;28;20044;-70
2022/04/08 09:30:26;;;;;;;12.27;1.60;;;6.80;99.90;;;;;;5070426;28;20515;-71
2022/04/08 09:32:54;;;;;;;4.32;1.15;;;6.80;99.90;;;;;;5070482;28;20052;-70
2022/04/08 09:35:25;;;;;;;2.88;1.05;;;6.80;99.90;;;;;;5070550;28;20428;-68
2022/04/08 09:38:01;;;;;;;7.53;2.47;;;7.00;99.90;;;;;;5068293;28;20045;-71
2022/04/08 09:40:36;;;;;;;4.03;1.25;;;7.10;99.90;;;;;;5070348;28;20055;-69
2022/04/08 09:43:04;;;;;;;2.65;1.15;;;7.20;99.90;;;;;;5070515;28;20401;-69
2022/04/08 09:45:32;;;;;;;7.53;1.58;;;7.30;99.90;;;;;;5070355;28;20044;-70
2022/04/08 09:48:01;;;;;;;7.30;1.30;;;7.30;99.90;;;;;;5068964;28;20044;-69
2022/04/08 09:50:29;;;;;;;3.85;1.10;;;7.40;99.90;;;;;;5070312;28;20045;-70
2022/04/08 09:52:57;;;;;;;4.75;1.15;;;7.40;99.90;;;;;;5062646;28;20045;-68
2022/04/08 09:55:28;;;;;;;2.88;0.90;;;7.50;99.90;;;;;;5048979;28;20193;-69
2022/04/08 09:58:00;;;;;;;6.07;1.05;;;7.70;99.90;;;;;;5050378;28;20403;-69
2022/04/08 10:00:28;;;;;;;5.43;0.90;;;7.80;99.90;;;;;;5070114;28;20404;-70
2022/04/08 10:03:00;;;;;;;4.22;1.00;;;8.00;99.90;;;;;;5070084;28;20475;-70
2022/04/08 10:05:29;;;;;;;2.65;1.00;;;8.20;99.90;;;;;;5070024;28;20036;-68
2022/04/08 10:07:57;;;;;;;1.35;0.50;;;8.30;99.90;;;;;;5065913;28;20400;-69
2022/04/08 10:10:51;;;;;;;4.28;0.68;;;8.40;99.90;;;;;;5069508;28;20047;-67
2022/04/08 10:13:42;;;;;;;4.68;0.88;;;8.40;99.90;;;;;;5066676;28;20404;-66
2022/04/08 10:16:20;;;;;;;3.60;0.93;;;8.50;99.90;;;;;;5049662;28;20040;-66
2022/04/08 10:18:50;;;;;;;3.03;1.23;;;8.60;99.90;;;;;;5069849;28;20496;-67
2022/04/08 10:21:18;;;;;;;1.88;0.88;;;8.70;99.90;;;;;;5069802;28;20037;-66
2022/04/08 10:23:51;;;;;;;9.10;0.85;;;8.70;99.90;;;;;;5057686;28;20049;-70
2022/04/08 10:26:24;;;;;;;2.67;0.80;;;8.70;99.90;;;;;;5051547;28;20045;-67
2022/04/08 10:28:54;;;;;;;5.60;0.95;;;8.70;99.90;;;;;;5072451;28;20067;-67
2022/04/08 10:31:26;;;;;;;2.35;0.80;;;8.80;99.90;;;;;;5072750;28;20052;-66
2022/04/08 10:33:54;;;;;;;0.63;0.40;;;8.90;99.90;;;;;;5073937;28;20059;-67
2022/04/08 10:36:40;;;;;;;4.78;0.73;;;9.00;99.90;;;;;;5073720;28;20044;-67
2022/04/08 10:39:16;;;;;;;0.85;0.70;;;9.00;99.90;;;;;;5072369;28;20056;-67
2022/04/08 10:41:52;;;;;;;3.45;1.10;;;9.00;99.90;;;;;;5073516;28;20044;-66
2022/04/08 10:44:35;;;;;;;2.05;0.75;;;9.10;99.90;;;;;;5056089;28;20052;-66
2022/04/08 10:47:23;;;;;;;3.50;0.75;;;9.30;99.90;;;;;;5072235;28;20055;-66
2022/04/08 10:49:52;;;;;;;4.82;0.90;;;9.40;99.90;;;;;;5073399;28;20399;-66
2022/04/08 10:52:31;;;;;;;6.35;0.80;;;9.60;99.90;;;;;;5073436;28;20053;-68
2022/04/08 10:55:12;;;;;;;1.05;0.60;;;9.70;99.90;;;;;;5071954;28;20040;-67
2022/04/08 10:57:44;;;;;;;3.28;1.05;;;9.80;99.90;;;;;;5073469;28;20083;-66
2022/04/08 11:00:18;;;;;;;2.50;0.80;;;10.00;99.90;;;;;;5072119;28;20515;-66
2022/04/08 11:02:47;;;;;;;3.10;1.00;;;10.00;99.90;;;;;;5073196;28;20044;-66
2022/04/08 11:05:18;;;;;;;5.28;1.08;;;9.90;99.90;;;;;;5073368;28;20049;-65
2022/04/08 11:07:49;;;;;;;3.42;0.88;;;9.90;99.90;;;;;;5071198;28;20048;-67
2022/04/08 11:10:21;;;;;;;4.95;0.90;;;9.90;99.90;;;;;;5053221;28;20059;-66
2022/04/08 11:12:55;;;;;;;2.35;0.70;;;10.00;99.90;;;;;;5052891;28;20041;-66
2022/04/08 11:15:25;;;;;;;3.80;1.20;;;9.90;99.90;;;;;;5050080;28;20522;-65
2022/04/08 11:17:53;;;;;;;1.77;0.90;;;9.70;99.90;;;;;;5049239;28;20052;-65
2022/04/08 11:20:23;;;;;;;2.10;1.02;;;9.50;99.90;;;;;;5072004;28;20052;-65
2022/04/08 11:22:52;;;;;;;1.95;0.90;;;9.50;99.90;;;;;;5072121;28;20048;-65
2022/04/08 11:25:22;;;;;;;3.67;0.90;;;9.60;99.90;;;;;;5052856;28;20132;-67
2022/04/08 11:28:16;;;;;;;3.30;0.90;;;9.70;99.90;;;;;;5051581;28;20061;-67
2022/04/08 11:30:44;;;;;;;3.13;0.80;;;9.90;99.90;;;;;;5068699;28;20053;-67
2022/04/08 11:33:17;;;;;;;4.60;1.30;;;10.10;99.90;;;;;;5069438;28;20044;-67
2022/04/08 11:35:46;;;;;;;2.70;1.67;;;10.20;99.90;;;;;;5067697;28;20428;-67
2022/04/08 11:38:15;;;;;;;2.05;0.98;;;10.40;99.90;;;;;;5069724;28;20044;-67
2022/04/08 11:40:44;;;;;;;2.63;0.80;;;10.60;99.90;;;;;;5052611;28;20063;-66
2022/04/08 11:43:16;;;;;;;2.55;1.08;;;10.80;99.90;;;;;;5052478;28;20049;-66
2022/04/08 11:45:52;;;;;;;3.17;1.00;;;11.20;99.90;;;;;;5051641;28;20044;-66
2022/04/08 11:48:23;;;;;;;2.25;0.90;;;11.50;99.90;;;;;;5053158;28;20044;-66
2022/04/08 11:51:05;;;;;;;3.20;1.20;;;11.80;99.90;;;;;;5069909;28;20048;-67
2022/04/08 11:53:43;;;;;;;4.10;1.38;;;12.10;99.90;;;;;;5068176;28;20041;-66
2022/04/08 11:56:11;;;;;;;2.38;0.93;;;12.40;99.90;;;;;;5052268;28;20045;-66
2022/04/08 11:58:39;;;;;;;4.65;1.42;;;12.60;99.90;;;;;;5058971;28;20049;-66
2022/04/08 12:01:09;;;;;;;5.60;1.35;;;12.80;99.90;;;;;;5072172;28;20055;-66
2022/04/08 12:03:39;;;;;;;6.18;1.73;;;13.00;99.90;;;;;;5071123;28;20040;-66
2022/04/08 12:06:08;;;;;;;5.65;1.42;;;13.20;99.90;;;;;;5072172;28;20067;-67
2022/04/08 12:08:38;;;;;;;5.28;1.00;;;13.50;99.90;;;;;;5067485;28;20041;-66
2022/04/08 12:11:10;;;;;;;2.47;0.90;;;13.60;99.90;;;;;;5051973;28;20637;-66
2022/04/08 12:13:42;;;;;;;5.72;1.40;;;13.50;99.90;;;;;;5051954;28;20048;-65
2022/04/08 12:16:12;;;;;;;2.03;1.05;;;13.50;99.90;;;;;;5050842;28;20052;-69
2022/04/08 12:18:51;;;;;;;3.63;1.10;;;13.60;99.90;;;;;;5055505;28;20484;-67
2022/04/08 12:21:24;;;;;;;4.97;1.52;;;13.90;99.90;;;;;;5069240;28;20369;-67
2022/04/08 12:23:53;;;;;;;2.67;1.20;;;14.20;99.90;;;;;;5067146;28;20396;-68
2022/04/08 12:26:30;;;;;;;2.72;1.40;;;14.40;99.90;;;;;;5051622;28;20048;-69
2022/04/08 12:29:13;;;;;;;7.30;1.38;;;14.30;99.90;;;;;;5060830;28;20044;-69
2022/04/08 12:31:55;;;;;;;1.92;1.17;;;14.20;99.90;;;;;;5071387;28;20052;-68
2022/04/08 12:34:23;;;;;;;3.67;1.10;;;14.40;99.90;;;;;;5071531;28;20040;-70
2022/04/08 12:36:51;;;;;;;6.20;1.42;;;14.80;99.90;;;;;;5071381;28;20045;-70
2022/04/08 12:39:19;;;;;;;3.08;1.08;;;15.20;99.90;;;;;;5064136;28;20056;-70
2022/04/08 12:41:47;;;;;;;4.55;1.38;;;15.70;99.90;;;;;;5051074;28;20064;-70
2022/04/08 12:44:16;;;;;;;5.15;1.48;;;16.30;99.90;;;;;;5051233;28;20052;-70
2022/04/08 12:46:44;;;;;;;2.97;1.20;;;16.40;99.90;;;;;;5051367;28;20052;-67
2022/04/08 12:49:12;;;;;;;3.80;1.23;;;16.30;99.90;;;;;;5061518;28;20052;-67
2022/04/08 12:51:40;;;;;;;6.38;1.00;;;16.00;98.80;;;;;;5071030;28;20048;-68
2022/04/08 12:54:08;;;;;;;4.82;0.88;;;15.30;97.70;;;;;;5069631;28;20063;-67
2022/04/08 12:56:35;;;;;;;1.00;0.80;;;14.60;98.10;;;;;;5071164;28;20040;-65
2022/04/08 12:59:03;;;;;;;2.58;1.10;;;14.00;99.10;;;;;;5070888;28;20499;-66
2022/04/08 13:01:31;;;;;;;11.18;1.30;;;14.10;99.90;;;;;;5069741;28;20040;-66
2022/04/08 13:03:59;;;;;;;4.22;0.82;;;14.60;99.90;;;;;;5070727;28;20056;-67